createdAt,value
2023-04-09T00:00:42.216Z,35.13
2023-04-09T00:03:08.926Z,34.90
2023-04-09T00:05:39.649Z,36.50
2023-04-09T00:08:06.950Z,37.55
2023-04-09T00:10:33.477Z,38.17
2023-04-09T00:13:00.252Z,40.85
2023-04-09T00:15:31.320Z,39.80
2023-04-09T00:17:58.605Z,42.88
2023-04-09T00:20:25.410Z,40.33
2023-04-09T00:22:52.334Z,40.88
2023-04-09T00:25:20.015Z,37.70
2023-04-09T00:27:46.995Z,35.78
2023-04-09T00:30:13.806Z,35.53
2023-04-09T00:32:40.632Z,37.42
2023-04-09T00:35:08.406Z,34.90
2023-04-09T00:37:35.255Z,37.80
2023-04-09T00:40:01.869Z,41.30
2023-04-09T00:42:32.287Z,38.08
2023-04-09T00:44:59.244Z,36.25
2023-04-09T00:47:29.913Z,39.30
2023-04-09T00:49:57.634Z,38.83
2023-04-09T00:52:25.023Z,45.10
2023-04-09T00:54:52.486Z,43.90
2023-04-09T00:57:19.646Z,39.28
2023-04-09T00:59:46.394Z,38.70
2023-04-09T01:02:13.159Z,39.97
2023-04-09T01:04:42.305Z,43.17
2023-04-09T01:07:31.837Z,42.13
2023-04-09T01:10:10.777Z,42.33
2023-04-09T01:12:44.117Z,42.50
2023-04-09T01:15:15.298Z,39.75
2023-04-09T01:17:47.031Z,40.90
2023-04-09T01:20:31.736Z,40.13
2023-04-09T01:23:36.996Z,36.67
2023-04-09T01:26:34.034Z,37.15
2023-04-09T01:29:03.050Z,36.72
2023-04-09T01:31:36.058Z,38.05
2023-04-09T01:34:03.716Z,39.10
2023-04-09T01:36:32.367Z,42.90
2023-04-09T01:39:01.255Z,45.42
2023-04-09T01:41:31.163Z,44.13
2023-04-09T01:44:01.773Z,38.22
2023-04-09T01:46:29.924Z,39.92
2023-04-09T01:48:57.433Z,39.05
2023-04-09T01:51:24.298Z,38.40
2023-04-09T01:53:51.221Z,41.83
2023-04-09T01:56:17.815Z,41.10
2023-04-09T01:58:44.889Z,44.72
2023-04-09T02:01:27.336Z,47.17
2023-04-09T02:04:00.849Z,47.97
2023-04-09T02:06:33.149Z,48.28
2023-04-09T02:09:02.096Z,50.10
2023-04-09T02:11:32.153Z,49.78
2023-04-09T02:13:59.370Z,49.78
2023-04-09T02:16:27.465Z,47.35
2023-04-09T02:18:58.066Z,44.97
2023-04-09T02:21:24.617Z,44.85
2023-04-09T02:23:51.249Z,45.40
2023-04-09T02:26:18.153Z,45.97
2023-04-09T02:28:44.686Z,47.17
2023-04-09T02:31:11.562Z,53.47
2023-04-09T02:33:38.234Z,55.22
2023-04-09T02:36:05.782Z,58.10
2023-04-09T02:38:32.678Z,58.30
2023-04-09T02:40:59.256Z,57.13
2023-04-09T02:43:25.809Z,54.55
2023-04-09T02:45:52.354Z,52.95
2023-04-09T02:48:18.905Z,48.85
2023-04-09T02:50:45.464Z,49.95
2023-04-09T02:53:12.095Z,51.20
2023-04-09T02:55:38.651Z,50.45
2023-04-09T02:58:05.192Z,49.78
2023-04-09T03:00:31.793Z,50.13
2023-04-09T03:02:58.764Z,48.80
2023-04-09T03:05:25.525Z,49.13
2023-04-09T03:07:52.137Z,50.20
2023-04-09T03:10:18.695Z,54.25
2023-04-09T03:12:45.321Z,52.72
2023-04-09T03:15:11.876Z,53.45
2023-04-09T03:17:39.137Z,53.70
2023-04-09T03:20:07.670Z,51.67
2023-04-09T03:22:38.096Z,49.35
2023-04-09T03:25:05.693Z,52.08
2023-04-09T03:27:32.857Z,49.58
2023-04-09T03:29:59.440Z,47.38
2023-04-09T03:32:26.035Z,47.65
2023-04-09T03:34:52.647Z,46.47
2023-04-09T03:37:19.292Z,44.60
2023-04-09T03:39:45.862Z,40.88
2023-04-09T03:42:12.425Z,40.53
2023-04-09T03:44:38.983Z,39.33
2023-04-09T03:47:05.779Z,38.45
2023-04-09T03:49:35.807Z,38.53
2023-04-09T03:52:02.403Z,38.88
2023-04-09T03:54:31.890Z,38.00
2023-04-09T03:56:58.451Z,35.47
2023-04-09T03:59:25.091Z,35.55
2023-04-09T04:01:51.744Z,37.00
2023-04-09T04:04:19.427Z,35.92
2023-04-09T04:06:47.757Z,37.65
2023-04-09T04:09:14.342Z,37.75
2023-04-09T04:11:40.933Z,37.40
2023-04-09T04:14:07.502Z,38.90
2023-04-09T04:16:34.185Z,37.67
2023-04-09T04:19:01.020Z,38.22
2023-04-09T04:21:27.608Z,36.75
2023-04-09T04:23:54.182Z,36.33
2023-04-09T04:26:20.861Z,39.50
2023-04-09T04:28:47.447Z,41.00
2023-04-09T04:31:14.029Z,42.08
2023-04-09T04:33:41.929Z,42.53
2023-04-09T04:36:14.655Z,43.42
2023-04-09T04:38:42.178Z,43.03
2023-04-09T04:41:10.431Z,42.33
2023-04-09T04:43:37.066Z,43.00
2023-04-09T04:46:03.782Z,41.15
2023-04-09T04:48:30.986Z,44.13
2023-04-09T04:50:59.437Z,46.80
2023-04-09T04:53:26.356Z,45.83
2023-04-09T04:55:53.217Z,47.53
2023-04-09T04:58:20.113Z,48.72
2023-04-09T05:00:46.887Z,49.85
2023-04-09T05:03:13.936Z,51.97
2023-04-09T05:05:40.726Z,51.58
2023-04-09T05:08:07.484Z,52.75
2023-04-09T05:10:34.070Z,52.83
2023-04-09T05:13:00.765Z,52.25
2023-04-09T05:15:27.622Z,52.70
2023-04-09T05:17:54.387Z,55.78
2023-04-09T05:20:20.962Z,55.15
2023-04-09T05:22:47.606Z,57.28
2023-04-09T05:25:16.320Z,56.28
2023-04-09T05:27:43.149Z,56.83
2023-04-09T05:30:10.374Z,59.15
2023-04-09T05:32:37.277Z,60.13
2023-04-09T05:35:04.197Z,59.20
2023-04-09T05:37:30.791Z,59.47
2023-04-09T05:39:57.497Z,59.80
2023-04-09T05:42:24.206Z,60.47
2023-04-09T05:44:51.009Z,56.55
2023-04-09T05:47:17.669Z,60.65
2023-04-09T05:49:44.271Z,57.67
2023-04-09T05:52:10.964Z,61.58
2023-04-09T05:54:37.816Z,60.70
2023-04-09T05:57:04.606Z,62.15
2023-04-09T05:59:31.163Z,63.08
2023-04-09T06:01:57.755Z,63.40
2023-04-09T06:04:24.462Z,64.53
2023-04-09T06:06:51.822Z,67.63
2023-04-09T06:09:18.403Z,64.75
2023-04-09T06:11:44.956Z,66.90
2023-04-09T06:14:16.326Z,70.18
2023-04-09T06:16:42.933Z,70.57
2023-04-09T06:19:09.525Z,69.57
2023-04-09T06:21:36.259Z,70.63
2023-04-09T06:24:02.843Z,69.43
2023-04-09T06:26:29.390Z,68.22
2023-04-09T06:28:55.934Z,68.05
2023-04-09T06:31:22.617Z,63.63
2023-04-09T06:33:49.280Z,59.85
2023-04-09T06:36:16.002Z,62.13
2023-04-09T06:38:42.586Z,55.60
2023-04-09T06:41:09.369Z,60.25
2023-04-09T06:43:37.436Z,59.30
2023-04-09T06:46:04.162Z,63.17
2023-04-09T06:48:31.334Z,65.40
2023-04-09T06:50:57.912Z,65.43
2023-04-09T06:53:24.516Z,64.72
2023-04-09T06:55:51.375Z,67.03
2023-04-09T06:58:17.964Z,70.22
2023-04-09T07:00:44.539Z,76.03
2023-04-09T07:03:11.512Z,80.35
2023-04-09T07:05:38.231Z,77.65
2023-04-09T07:08:05.244Z,84.43
2023-04-09T07:10:31.881Z,90.32
2023-04-09T07:12:58.502Z,84.40
2023-04-09T07:15:25.212Z,86.45
2023-04-09T07:17:51.795Z,80.97
2023-04-09T07:20:18.490Z,77.22
2023-04-09T07:22:46.522Z,87.47
2023-04-09T07:25:13.099Z,88.43
2023-04-09T07:27:39.723Z,80.22
2023-04-09T07:30:07.004Z,73.50
2023-04-09T07:32:33.600Z,78.18
2023-04-09T07:35:00.376Z,65.10
2023-04-09T07:37:27.154Z,51.58
2023-04-09T07:39:53.837Z,48.85
2023-04-09T07:42:20.439Z,45.92
2023-04-09T07:44:47.741Z,40.63
2023-04-09T07:47:14.792Z,44.65
2023-04-09T07:49:42.063Z,56.55
2023-04-09T07:52:08.767Z,47.28
2023-04-09T07:54:35.847Z,42.17
2023-04-09T07:57:03.120Z,55.35
2023-04-09T07:59:31.588Z,72.47
2023-04-09T08:01:59.175Z,102.18
2023-04-09T08:04:27.160Z,65.18
2023-04-09T08:06:54.242Z,75.68
2023-04-09T08:09:21.552Z,105.00
2023-04-09T08:11:49.469Z,124.15
2023-04-09T08:14:17.135Z,132.00
2023-04-09T08:16:46.273Z,134.75
2023-04-09T08:19:14.881Z,136.18
2023-04-09T08:21:48.739Z,176.18
2023-04-09T08:24:15.687Z,159.48
2023-04-09T08:26:43.292Z,158.23
2023-04-09T08:29:12.359Z,129.13
2023-04-09T08:31:39.096Z,131.10
2023-04-09T08:34:06.202Z,134.88
2023-04-09T08:36:34.716Z,71.20
2023-04-09T08:39:02.267Z,37.33
2023-04-09T08:41:29.480Z,29.98
2023-04-09T08:43:58.945Z,28.55
2023-04-09T08:46:26.500Z,30.08
2023-04-09T08:48:53.813Z,30.77
2023-04-09T08:51:23.184Z,29.00
2023-04-09T08:53:55.843Z,30.17
2023-04-09T08:56:22.861Z,30.55
2023-04-09T08:58:49.744Z,29.85
2023-04-09T09:01:20.855Z,29.92
2023-04-09T09:04:05.088Z,29.98
2023-04-09T09:06:37.467Z,32.85
2023-04-09T09:09:11.036Z,29.42
2023-04-09T09:11:48.600Z,29.10
2023-04-09T09:14:17.127Z,29.98
2023-04-09T09:17:03.804Z,32.28
2023-04-09T09:19:33.661Z,33.05
2023-04-09T09:22:03.523Z,36.40
2023-04-09T09:24:32.545Z,37.25
2023-04-09T09:26:59.220Z,34.97
2023-04-09T09:29:26.337Z,29.75
2023-04-09T09:31:54.365Z,33.53
2023-04-09T09:34:23.458Z,39.45
2023-04-09T09:36:50.231Z,42.05
2023-04-09T09:39:17.994Z,43.00
2023-04-09T09:41:46.021Z,43.63
2023-04-09T09:44:29.971Z,41.85
2023-04-09T09:46:57.589Z,43.95
2023-04-09T09:49:24.111Z,40.85
2023-04-09T09:51:53.308Z,30.60
2023-04-09T09:54:25.566Z,30.58
2023-04-09T09:56:55.706Z,37.83
2023-04-09T09:59:31.006Z,36.85
2023-04-09T10:02:01.509Z,27.90
2023-04-09T10:04:29.768Z,27.48
2023-04-09T10:06:58.061Z,28.10
2023-04-09T10:09:28.105Z,28.85
2023-04-09T10:11:57.445Z,29.05
2023-04-09T10:14:24.727Z,30.30
2023-04-09T10:16:51.560Z,28.83
2023-04-09T10:19:18.720Z,28.35
2023-04-09T10:21:53.742Z,27.90
2023-04-09T10:24:20.808Z,28.15
2023-04-09T10:26:47.717Z,29.60
2023-04-09T10:29:16.416Z,29.25
2023-04-09T10:32:06.441Z,30.17
2023-04-09T10:34:41.954Z,29.65
2023-04-09T10:37:13.631Z,29.92
2023-04-09T10:39:47.857Z,29.73
2023-04-09T10:42:18.784Z,29.38
2023-04-09T10:44:46.037Z,28.70
2023-04-09T10:47:31.011Z,29.00
2023-04-09T10:52:30.263Z,29.92
2023-04-09T10:54:58.826Z,31.88
2023-04-09T10:57:26.354Z,31.55
2023-04-09T10:59:54.907Z,31.40
2023-04-09T11:02:39.861Z,31.13
2023-04-09T11:05:32.422Z,31.35
2023-04-09T11:08:13.335Z,31.08
2023-04-09T11:10:44.032Z,31.48
2023-04-09T11:13:15.809Z,30.50
2023-04-09T11:15:42.981Z,31.50
2023-04-09T11:18:09.989Z,31.15
2023-04-09T11:20:36.665Z,30.58
2023-04-09T11:23:03.458Z,28.75
2023-04-09T11:25:32.986Z,28.23
2023-04-09T11:28:02.267Z,30.33
2023-04-09T11:30:29.112Z,26.83
2023-04-09T11:32:55.833Z,27.88
2023-04-09T11:35:23.733Z,27.77
2023-04-09T11:37:52.396Z,27.48
2023-04-09T11:40:26.885Z,27.13
2023-04-09T11:42:55.325Z,27.58
2023-04-09T11:45:27.195Z,26.30
2023-04-09T11:47:54.174Z,27.83
2023-04-09T11:50:21.851Z,29.98
2023-04-09T11:52:49.660Z,28.58
2023-04-09T11:55:27.109Z,27.50
2023-04-09T11:57:58.085Z,30.05
2023-04-09T12:00:25.083Z,30.88
2023-04-09T12:03:02.666Z,29.63
2023-04-09T12:05:32.028Z,30.42
2023-04-09T12:08:01.236Z,30.58
2023-04-09T12:10:29.671Z,28.25
2023-04-09T12:13:02.349Z,28.98
2023-04-09T12:15:37.863Z,30.05
2023-04-09T12:18:09.072Z,29.33
2023-04-09T12:20:39.678Z,29.90
2023-04-09T12:23:07.825Z,27.42
2023-04-09T12:25:39.762Z,32.03
2023-04-09T12:28:08.821Z,29.35
2023-04-09T12:30:36.058Z,29.33
2023-04-09T12:33:04.100Z,30.42
2023-04-09T12:35:30.974Z,29.27
2023-04-09T12:37:59.305Z,30.73
2023-04-09T12:40:26.432Z,31.63
2023-04-09T12:42:53.120Z,28.60
2023-04-09T12:45:20.932Z,31.27
2023-04-09T12:47:48.194Z,31.20
2023-04-09T12:50:16.263Z,29.90
2023-04-09T12:52:43.996Z,34.33
2023-04-09T12:55:12.114Z,33.13
2023-04-09T12:57:40.012Z,32.88
2023-04-09T13:00:08.017Z,32.05
2023-04-09T13:02:35.484Z,29.80
2023-04-09T13:05:02.608Z,32.67
2023-04-09T13:07:29.520Z,32.28
2023-04-09T13:09:57.204Z,25.15
2023-04-09T13:12:24.265Z,24.13
2023-04-09T13:14:53.683Z,24.30
2023-04-09T13:17:20.281Z,23.48
2023-04-09T13:19:46.916Z,22.13
2023-04-09T13:22:13.550Z,20.90
2023-04-09T13:24:40.195Z,18.20
2023-04-09T13:27:09.458Z,17.83
2023-04-09T13:29:36.267Z,15.18
2023-04-09T13:32:07.076Z,15.40
2023-04-09T13:34:35.626Z,15.60
2023-04-09T13:37:05.479Z,13.30
2023-04-09T13:39:32.955Z,14.18
2023-04-09T13:42:01.419Z,14.38
2023-04-09T13:44:29.255Z,14.27
2023-04-09T13:46:56.001Z,14.18
2023-04-09T13:49:22.693Z,14.98
2023-04-09T13:51:50.179Z,14.05
2023-04-09T13:54:17.486Z,14.68
2023-04-09T13:56:44.971Z,14.90
2023-04-09T13:59:11.824Z,14.95
2023-04-09T14:01:38.555Z,14.52
2023-04-09T14:04:05.304Z,14.57
2023-04-09T14:06:32.041Z,13.90
2023-04-09T14:08:58.622Z,15.70
2023-04-09T14:11:25.377Z,14.50
2023-04-09T14:13:52.057Z,14.68
2023-04-09T14:16:19.578Z,13.70
2023-04-09T14:18:46.360Z,13.10
2023-04-09T14:21:13.293Z,14.73
2023-04-09T14:23:40.377Z,13.90
2023-04-09T14:26:07.227Z,14.70
2023-04-09T14:28:33.829Z,14.25
2023-04-09T14:31:00.681Z,14.25
2023-04-09T14:33:27.630Z,13.88
2023-04-09T14:35:54.217Z,13.80
2023-04-09T14:38:20.815Z,13.45
2023-04-09T14:40:47.499Z,13.45
2023-04-09T14:43:14.245Z,13.13
2023-04-09T14:45:41.048Z,12.75
2023-04-09T14:48:08.193Z,13.40
2023-04-09T14:50:36.238Z,13.85
2023-04-09T14:53:03.836Z,13.45
2023-04-09T14:55:30.414Z,14.10
2023-04-09T14:57:57.092Z,13.60
2023-04-09T15:00:23.664Z,13.27
2023-04-09T15:02:50.660Z,15.27
2023-04-09T15:05:17.340Z,15.07
2023-04-09T15:07:44.099Z,14.00
2023-04-09T15:10:11.189Z,13.80
2023-04-09T15:12:37.781Z,14.15
2023-04-09T15:15:08.817Z,14.05
2023-04-09T15:20:02.572Z,13.30
2023-04-09T15:22:29.246Z,14.20
2023-04-09T15:24:56.188Z,13.82
2023-04-09T15:27:22.887Z,14.10
2023-04-09T15:29:49.584Z,13.52
2023-04-09T15:32:16.598Z,13.85
2023-04-09T15:34:43.205Z,13.32
2023-04-09T15:37:09.776Z,13.30
2023-04-09T15:39:36.639Z,14.52
2023-04-09T15:42:03.385Z,13.82
2023-04-09T15:44:30.105Z,13.40
2023-04-09T15:46:56.871Z,13.35
2023-04-09T15:49:23.627Z,13.88
2023-04-09T15:51:51.042Z,14.15
2023-04-09T15:54:17.761Z,13.18
2023-04-09T15:56:44.329Z,13.77
2023-04-09T15:59:10.905Z,14.20
2023-04-09T16:01:37.825Z,13.00
2023-04-09T16:04:04.919Z,12.85
2023-04-09T16:06:32.392Z,13.02
2023-04-09T16:08:59.205Z,13.60
2023-04-09T16:11:26.047Z,13.07
2023-04-09T16:13:52.792Z,14.07
2023-04-09T16:16:20.209Z,14.75
2023-04-09T16:18:47.632Z,14.07
2023-04-09T16:21:14.270Z,11.93
2023-04-09T16:23:41.011Z,13.32
2023-04-09T16:26:07.714Z,13.32
2023-04-09T16:28:34.266Z,12.85
2023-04-09T16:31:00.929Z,14.68
2023-04-09T16:33:27.590Z,13.20
2023-04-09T16:35:54.168Z,12.70
2023-04-09T16:38:20.794Z,13.15
2023-04-09T16:40:47.477Z,14.30
2023-04-09T16:43:14.071Z,13.18
2023-04-09T16:45:40.776Z,13.63
2023-04-09T16:48:12.220Z,14.85
2023-04-09T16:50:40.309Z,14.93
2023-04-09T16:53:08.511Z,15.43
2023-04-09T16:55:35.692Z,15.55
2023-04-09T16:58:02.299Z,15.82
2023-04-09T17:00:29.030Z,15.80
2023-04-09T17:02:57.930Z,15.82
2023-04-09T17:05:24.897Z,16.83
2023-04-09T17:07:52.441Z,17.85
2023-04-09T17:10:19.545Z,17.38
2023-04-09T17:12:46.409Z,17.20
2023-04-09T17:15:13.047Z,17.20
2023-04-09T17:17:39.832Z,19.73
2023-04-09T17:20:07.081Z,18.25
2023-04-09T17:22:35.142Z,19.83
2023-04-09T17:25:02.509Z,18.88
2023-04-09T17:27:29.223Z,19.45
2023-04-09T17:29:56.022Z,20.70
2023-04-09T17:32:22.855Z,19.63
2023-04-09T17:34:49.522Z,20.63
2023-04-09T17:37:16.388Z,21.10
2023-04-09T17:39:43.032Z,20.25
2023-04-09T17:42:11.849Z,21.10
2023-04-09T17:44:38.725Z,22.50
2023-04-09T17:47:07.288Z,21.80
2023-04-09T17:49:34.119Z,22.65
2023-04-09T17:52:01.249Z,22.70
2023-04-09T17:54:33.525Z,22.83
2023-04-09T17:57:01.350Z,23.00
2023-04-09T17:59:28.063Z,24.23
2023-04-09T18:01:55.323Z,24.10
2023-04-09T18:04:26.241Z,23.98
2023-04-09T18:06:53.153Z,26.08
2023-04-09T18:09:19.782Z,26.35
2023-04-09T18:11:47.177Z,27.48
2023-04-09T18:14:13.896Z,27.50
2023-04-09T18:16:41.360Z,27.27
2023-04-09T18:19:08.289Z,27.83
2023-04-09T18:21:37.756Z,28.77
2023-04-09T18:24:04.917Z,28.35
2023-04-09T18:26:33.423Z,28.92
2023-04-09T18:29:01.436Z,29.08
2023-04-09T18:31:28.596Z,29.95
2023-04-09T18:33:55.402Z,29.88
2023-04-09T18:36:22.296Z,30.45
2023-04-09T18:38:49.061Z,31.15
2023-04-09T18:41:23.173Z,28.38
2023-04-09T18:43:49.776Z,29.02
2023-04-09T18:46:16.386Z,27.63
2023-04-09T18:48:47.052Z,27.73
2023-04-09T18:51:14.496Z,26.38
2023-04-09T18:53:41.820Z,27.00
2023-04-09T18:56:08.469Z,27.27
2023-04-09T18:58:36.186Z,26.23
2023-04-09T19:01:12.354Z,26.55
2023-04-09T19:03:39.963Z,27.27
2023-04-09T19:06:18.068Z,26.88
2023-04-09T19:08:46.192Z,25.10
2023-04-09T19:11:13.484Z,26.02
2023-04-09T19:13:40.531Z,25.80
2023-04-09T19:16:09.059Z,24.58
2023-04-09T19:18:36.857Z,24.45
2023-04-09T19:21:03.552Z,23.55
2023-04-09T19:23:30.743Z,22.15
2023-04-09T19:25:57.461Z,23.05
2023-04-09T19:28:24.511Z,21.48
2023-04-09T19:30:54.254Z,22.35
2023-04-09T19:33:22.603Z,22.13
2023-04-09T19:35:50.183Z,22.88
2023-04-09T19:38:18.148Z,21.50
2023-04-09T19:40:45.969Z,20.95
2023-04-09T19:43:12.806Z,22.67
2023-04-09T19:45:39.742Z,22.63
2023-04-09T19:48:07.225Z,23.55
2023-04-09T19:50:38.874Z,22.08
2023-04-09T19:53:06.139Z,23.77
2023-04-09T19:55:33.639Z,25.23
2023-04-09T19:58:00.600Z,29.05
2023-04-09T20:00:28.311Z,30.85
2023-04-09T20:02:55.696Z,35.25
2023-04-09T20:05:22.964Z,40.13
2023-04-09T20:07:50.770Z,44.92
2023-04-09T20:10:17.656Z,46.58
2023-04-09T20:12:47.873Z,50.25
2023-04-09T20:15:14.813Z,52.80
2023-04-09T20:17:44.383Z,52.97
2023-04-09T20:20:11.828Z,54.30
2023-04-09T20:22:43.220Z,57.55
2023-04-09T20:25:12.837Z,58.40
2023-04-09T20:27:39.633Z,62.47
2023-04-09T20:30:07.150Z,56.63
2023-04-09T20:32:35.807Z,49.45
2023-04-09T20:35:02.527Z,42.75
2023-04-09T20:37:29.138Z,40.00
2023-04-09T20:39:55.726Z,45.88
2023-04-09T20:42:22.257Z,49.30
2023-04-09T20:44:48.784Z,49.28
2023-04-09T20:47:15.658Z,60.22
2023-04-09T20:49:43.046Z,59.22
2023-04-09T20:52:09.954Z,56.33
2023-04-09T20:54:36.481Z,56.97
2023-04-09T20:57:04.964Z,58.00
2023-04-09T20:59:32.201Z,53.33
2023-04-09T21:01:58.884Z,54.50
2023-04-09T21:04:26.103Z,51.10
2023-04-09T21:06:53.193Z,46.53
2023-04-09T21:09:19.808Z,47.70
2023-04-09T21:11:46.432Z,47.90
2023-04-09T21:14:14.779Z,47.72
2023-04-09T21:16:41.450Z,46.13
2023-04-09T21:19:08.094Z,43.45
2023-04-09T21:21:34.864Z,43.90
2023-04-09T21:24:01.829Z,40.33
2023-04-09T21:26:33.696Z,36.15
2023-04-09T21:29:11.768Z,36.78
2023-04-09T21:31:38.386Z,33.83
2023-04-09T21:34:05.237Z,35.38
2023-04-09T21:36:34.677Z,35.33
2023-04-09T21:39:01.529Z,33.70
2023-04-09T21:41:28.258Z,33.92
2023-04-09T21:43:54.897Z,32.10
2023-04-09T21:46:21.794Z,33.10
2023-04-09T21:48:48.538Z,32.70
2023-04-09T21:51:15.115Z,31.50
2023-04-09T21:53:41.680Z,31.85
2023-04-09T21:56:08.473Z,30.45
2023-04-09T21:58:35.338Z,29.92
2023-04-09T22:01:02.039Z,30.20
2023-04-09T22:03:28.960Z,29.70
2023-04-09T22:05:55.877Z,29.23
2023-04-09T22:08:22.446Z,28.30
2023-04-09T22:10:49.039Z,27.30
2023-04-09T22:13:15.912Z,27.15
2023-04-09T22:15:42.782Z,30.17
2023-04-09T22:18:09.420Z,30.20
2023-04-09T22:20:36.210Z,29.85
2023-04-09T22:23:03.133Z,35.00
2023-04-09T22:25:34.832Z,38.13
2023-04-09T22:28:01.473Z,36.80
2023-04-09T22:30:28.142Z,41.78
2023-04-09T22:32:54.783Z,41.78
2023-04-09T22:35:21.358Z,44.63
2023-04-09T22:37:47.939Z,46.08
2023-04-09T22:40:16.108Z,45.75
2023-04-09T22:42:44.038Z,49.08
2023-04-09T22:45:11.281Z,49.85
2023-04-09T22:47:38.781Z,51.00
2023-04-09T22:50:07.014Z,50.47
2023-04-09T22:52:33.580Z,50.92
2023-04-09T22:55:00.318Z,52.47
2023-04-09T22:57:26.899Z,60.00
2023-04-09T22:59:53.415Z,59.10
2023-04-09T23:02:20.160Z,59.42
2023-04-09T23:04:46.883Z,60.15
2023-04-09T23:07:13.451Z,62.22
2023-04-09T23:09:40.212Z,61.58
2023-04-09T23:12:06.762Z,59.67
2023-04-09T23:14:33.307Z,62.08
2023-04-09T23:16:59.922Z,61.65
2023-04-09T23:19:27.082Z,60.63
2023-04-09T23:21:53.639Z,60.30
2023-04-09T23:24:20.291Z,59.10
2023-04-09T23:26:46.862Z,59.03
2023-04-09T23:29:13.461Z,58.22
2023-04-09T23:31:40.066Z,59.35
2023-04-09T23:34:06.696Z,57.78
2023-04-09T23:36:33.313Z,55.78
2023-04-09T23:38:59.908Z,53.90
2023-04-09T23:41:26.716Z,53.10
2023-04-09T23:43:53.497Z,54.35
2023-04-09T23:46:20.677Z,53.22
2023-04-09T23:48:47.224Z,52.25
2023-04-09T23:51:18.435Z,52.90
2023-04-09T23:53:45.431Z,52.65
2023-04-09T23:56:14.543Z,52.08
2023-04-09T23:58:41.329Z,51.55
